createdAt,value
2018-12-04T00:01:33.141Z,94839.22
2018-12-04T00:04:06.635Z,94844.89
2018-12-04T00:06:35.057Z,94851.48
2018-12-04T00:09:07.645Z,94863.34
2018-12-04T00:11:36.114Z,94852.77
2018-12-04T00:14:05.080Z,94865.94
2018-12-04T00:16:33.485Z,94855.02
2018-12-04T00:19:04.177Z,94878.74
2018-12-04T00:21:32.582Z,94880.04
2018-12-04T00:24:04.432Z,94877.34
2018-12-04T00:26:32.836Z,94880.45
2018-12-04T00:29:03.866Z,94876.00
2018-12-04T00:31:32.296Z,94881.92
2018-12-04T00:34:00.686Z,94882.89
2018-12-04T00:36:29.333Z,94893.61
2018-12-04T00:39:06.509Z,94889.86
2018-12-04T00:41:34.972Z,94880.63
2018-12-04T00:44:05.105Z,94886.53
2018-12-04T00:46:33.580Z,94885.49
2018-12-04T00:49:03.897Z,94886.32
2018-12-04T00:51:32.312Z,94889.39
2018-12-04T00:54:04.417Z,94895.86
2018-12-04T00:56:32.849Z,94911.39
2018-12-04T00:59:03.868Z,94911.86
2018-12-04T01:01:32.273Z,94912.69
2018-12-04T01:04:00.671Z,94912.29
2018-12-04T01:06:29.226Z,94912.29
2018-12-04T01:08:57.657Z,94919.11
2018-12-04T01:11:26.279Z,94940.17
2018-12-04T01:13:54.681Z,94917.13
2018-12-04T01:16:23.101Z,94925.06
2018-12-04T01:18:51.502Z,94926.47
2018-12-04T01:21:19.948Z,94930.25
2018-12-04T01:23:48.395Z,94940.28
2018-12-04T01:26:16.952Z,94929.28
2018-12-04T01:28:45.940Z,94922.11
2018-12-04T01:31:14.565Z,94928.38
2018-12-04T01:33:43.024Z,94932.09
2018-12-04T01:36:11.477Z,94930.66
2018-12-04T01:38:39.897Z,94926.55
2018-12-04T01:41:08.301Z,94923.33
2018-12-04T01:43:37.004Z,94926.08
2018-12-04T01:46:07.249Z,94941.30
2018-12-04T01:48:35.680Z,94926.55
2018-12-04T01:51:05.165Z,94939.88
2018-12-04T01:53:33.608Z,94912.13
2018-12-04T01:56:04.554Z,94949.55
2018-12-04T01:58:33.001Z,94944.58
2018-12-04T02:01:03.628Z,94941.66
2018-12-04T02:03:32.069Z,94953.95
2018-12-04T02:06:00.462Z,94954.02
2018-12-04T02:08:28.890Z,94947.06
2018-12-04T02:10:57.271Z,94955.32
2018-12-04T02:13:25.897Z,94949.23
2018-12-04T02:15:54.284Z,94949.38
2018-12-04T02:18:22.714Z,94949.98
2018-12-04T02:20:51.105Z,94946.09
2018-12-04T02:23:19.540Z,94953.88
2018-12-04T02:25:47.928Z,94950.67
2018-12-04T02:28:16.336Z,94948.40
2018-12-04T02:30:44.731Z,94956.73
2018-12-04T02:33:13.148Z,94951.75
2018-12-04T02:35:41.553Z,94957.27
2018-12-04T02:38:10.001Z,94956.33
2018-12-04T02:40:38.400Z,94976.74
2018-12-04T02:43:06.837Z,94956.59
2018-12-04T02:45:35.241Z,94953.98
2018-12-04T02:48:05.377Z,94963.36
2018-12-04T02:50:33.904Z,94965.67
2018-12-04T02:53:05.615Z,94977.72
2018-12-04T02:55:34.039Z,94966.42
2018-12-04T02:58:05.393Z,94965.81
2018-12-04T03:00:33.802Z,94950.02
2018-12-04T03:03:06.147Z,94966.06
2018-12-04T03:05:34.557Z,94973.60
2018-12-04T03:08:05.376Z,94956.16
2018-12-04T03:10:33.789Z,94970.79
2018-12-04T03:13:04.359Z,94990.87
2018-12-04T03:15:32.830Z,94982.25
2018-12-04T03:18:04.487Z,94994.91
2018-12-04T03:20:32.916Z,94995.70
2018-12-04T03:23:03.669Z,94993.92
2018-12-04T03:25:32.104Z,94995.08
2018-12-04T03:28:00.513Z,95004.55
2018-12-04T03:30:28.963Z,95004.19
2018-12-04T03:32:57.375Z,95030.53
2018-12-04T03:35:25.822Z,95013.34
2018-12-04T03:37:54.237Z,95010.66
2018-12-04T03:40:22.672Z,95027.77
2018-12-04T03:42:51.076Z,95020.84
2018-12-04T03:45:19.517Z,95022.36
2018-12-04T03:47:47.921Z,95019.22
2018-12-04T03:50:16.364Z,95014.74
2018-12-04T03:52:44.759Z,95018.39
2018-12-04T03:55:13.205Z,95031.74
2018-12-04T03:57:41.821Z,95033.51
2018-12-04T04:00:10.255Z,95031.05
2018-12-04T04:02:38.788Z,95036.48
2018-12-04T04:05:07.465Z,95035.55
2018-12-04T04:07:35.871Z,95032.51
2018-12-04T04:10:06.515Z,95032.78
2018-12-04T04:12:34.917Z,95039.42
2018-12-04T04:15:05.566Z,95040.41
2018-12-04T04:17:34.004Z,95035.69
2018-12-04T04:20:04.373Z,95047.27
2018-12-04T04:22:32.814Z,95035.84
2018-12-04T04:25:03.670Z,95031.86
2018-12-04T04:27:32.122Z,95046.36
2018-12-04T04:30:00.530Z,95038.94
2018-12-04T04:32:28.960Z,95046.04
2018-12-04T04:34:57.389Z,95050.30
2018-12-04T04:37:25.816Z,95054.87
2018-12-04T04:39:54.219Z,95048.30
2018-12-04T04:42:22.650Z,95049.50
2018-12-04T04:44:51.057Z,95059.88
2018-12-04T04:47:19.482Z,95058.45
2018-12-04T04:49:47.887Z,95052.33
2018-12-04T04:52:16.319Z,95061.54
2018-12-04T04:54:44.730Z,95069.78
2018-12-04T04:57:13.157Z,95069.91
2018-12-04T04:59:41.788Z,95096.63
2018-12-04T05:02:10.285Z,95091.22
2018-12-04T05:04:38.751Z,95085.94
2018-12-04T05:07:07.175Z,95098.06
2018-12-04T05:09:35.572Z,95100.88
2018-12-04T05:12:05.229Z,95082.14
2018-12-04T05:14:33.638Z,95109.36
2018-12-04T05:17:04.620Z,95103.70
2018-12-04T05:19:33.034Z,95103.34
2018-12-04T05:22:04.464Z,95102.28
2018-12-04T05:24:32.893Z,95117.97
2018-12-04T05:27:03.677Z,95117.13
2018-12-04T05:29:32.093Z,95123.11
2018-12-04T05:32:00.525Z,95130.45
2018-12-04T05:34:29.010Z,95133.98
2018-12-04T05:36:57.458Z,95137.14
2018-12-04T05:39:25.856Z,95135.64
2018-12-04T05:41:54.253Z,95145.64
2018-12-04T05:44:22.698Z,95148.60
2018-12-04T05:46:51.110Z,95150.36
2018-12-04T05:49:19.500Z,95152.13
2018-12-04T05:51:48.243Z,95151.06
2018-12-04T05:54:16.641Z,95153.55
2018-12-04T05:56:45.037Z,95154.25
2018-12-04T05:59:13.497Z,95168.87
2018-12-04T06:01:41.912Z,95162.98
2018-12-04T06:04:10.354Z,95166.84
2018-12-04T06:06:38.806Z,95166.98
2018-12-04T06:09:07.932Z,95181.23
2018-12-04T06:11:36.393Z,95181.56
2018-12-04T06:14:05.042Z,95185.02
2018-12-04T06:16:33.493Z,95193.59
2018-12-04T06:19:03.665Z,95190.44
2018-12-04T06:21:32.064Z,95194.89
2018-12-04T06:24:00.617Z,95203.26
2018-12-04T06:26:29.062Z,95193.95
2018-12-04T06:28:57.589Z,95195.26
2018-12-04T06:31:25.965Z,95205.05
2018-12-04T06:33:54.393Z,95195.81
2018-12-04T06:36:23.208Z,95195.48
2018-12-04T06:38:51.896Z,95200.30
2018-12-04T06:41:20.285Z,95193.72
2018-12-04T06:43:48.712Z,95194.42
2018-12-04T06:46:17.109Z,95202.06
2018-12-04T06:48:45.558Z,95194.88
2018-12-04T06:51:13.959Z,95201.36
2018-12-04T06:53:42.400Z,95206.55
2018-12-04T06:56:10.816Z,95205.05
2018-12-04T06:58:39.253Z,95209.97
2018-12-04T07:01:07.651Z,95205.12
2018-12-04T07:03:36.076Z,95209.97
2018-12-04T07:06:05.011Z,95216.67
2018-12-04T07:08:33.438Z,95222.92
2018-12-04T07:11:03.441Z,95226.81
2018-12-04T07:13:31.860Z,95233.05
2018-12-04T07:16:00.253Z,95238.62
2018-12-04T07:18:28.688Z,95237.66
2018-12-04T07:20:57.080Z,95246.38
2018-12-04T07:23:25.512Z,95252.28
2018-12-04T07:25:53.916Z,95261.80
2018-12-04T07:28:22.340Z,95257.34
2018-12-04T07:30:50.809Z,95269.11
2018-12-04T07:33:19.274Z,95285.59
2018-12-04T07:35:47.717Z,95281.38
2018-12-04T07:38:16.168Z,95284.20
2018-12-04T07:40:44.599Z,95291.63
2018-12-04T07:43:12.996Z,95307.64
2018-12-04T07:45:41.420Z,95306.81
2018-12-04T07:48:09.828Z,95309.41
2018-12-04T07:50:38.256Z,95309.77
2018-12-04T07:53:06.665Z,95320.13
2018-12-04T07:55:35.084Z,95331.80
2018-12-04T07:58:05.278Z,95329.20
2018-12-04T08:00:33.943Z,95331.91
2018-12-04T08:03:04.549Z,95335.45
2018-12-04T08:05:33.005Z,95336.87
2018-12-04T08:10:35.829Z,95341.69
2018-12-04T08:13:05.753Z,95350.06
2018-12-04T08:15:34.184Z,95356.88
2018-12-04T08:18:05.865Z,95355.03
2018-12-04T08:20:34.432Z,95356.06
2018-12-04T08:23:05.404Z,95372.69
2018-12-04T08:25:33.948Z,95370.34
2018-12-04T08:28:04.633Z,95361.84
2018-12-04T08:30:33.064Z,95377.98
2018-12-04T08:33:04.209Z,95377.76
2018-12-04T08:35:32.644Z,95398.17
2018-12-04T08:38:03.633Z,95405.21
2018-12-04T08:40:32.058Z,95411.14
2018-12-04T08:43:00.440Z,95421.51
2018-12-04T08:45:28.857Z,95433.03
2018-12-04T08:47:57.242Z,95433.98
2018-12-04T08:50:25.676Z,95443.99
2018-12-04T08:52:54.062Z,95448.36
2018-12-04T08:55:22.476Z,95467.92
2018-12-04T08:57:50.880Z,95465.74
2018-12-04T09:00:20.009Z,95468.30
2018-12-04T09:02:48.416Z,95482.77
2018-12-04T09:05:16.915Z,95483.73
2018-12-04T09:07:45.456Z,95483.73
2018-12-04T09:10:14.385Z,95486.08
2018-12-04T09:12:42.782Z,95468.39
2018-12-04T09:15:11.177Z,95499.41
2018-12-04T09:17:39.609Z,95498.52
2018-12-04T09:20:08.774Z,95506.88
2018-12-04T09:22:37.336Z,95510.64
2018-12-04T09:25:05.968Z,95515.33
2018-12-04T09:27:34.376Z,95520.13
2018-12-04T09:30:06.412Z,95511.62
2018-12-04T09:32:34.929Z,95518.93
2018-12-04T09:35:06.347Z,95521.81
2018-12-04T09:37:34.738Z,95528.20
2018-12-04T09:40:05.983Z,95531.84
2018-12-04T09:42:34.389Z,95539.62
2018-12-04T09:45:06.596Z,95545.09
2018-12-04T09:47:34.992Z,95550.06
2018-12-04T09:50:06.847Z,95552.34
2018-12-04T09:52:35.228Z,95547.99
2018-12-04T09:55:05.655Z,95552.78
2018-12-04T09:57:34.084Z,95552.54
2018-12-04T10:00:05.225Z,95568.95
2018-12-04T10:02:33.659Z,95563.83
2018-12-04T10:05:04.764Z,95557.03
2018-12-04T10:07:33.184Z,95558.01
2018-12-04T10:10:03.720Z,95562.66
2018-12-04T10:12:32.136Z,95554.55
2018-12-04T10:15:00.526Z,95554.44
2018-12-04T10:17:28.980Z,95554.34
2018-12-04T10:19:57.388Z,95547.30
2018-12-04T10:22:25.893Z,95535.48
2018-12-04T10:24:54.556Z,95549.34
2018-12-04T10:27:22.960Z,95563.06
2018-12-04T10:29:51.396Z,95563.45
2018-12-04T10:32:19.808Z,95569.93
2018-12-04T10:34:48.209Z,95564.63
2018-12-04T10:37:16.640Z,95565.37
2018-12-04T10:39:45.030Z,95562.09
2018-12-04T10:42:13.433Z,95563.98
2018-12-04T10:44:41.841Z,95568.48
2018-12-04T10:47:10.236Z,95572.25
2018-12-04T10:49:39.883Z,95574.59
2018-12-04T10:52:08.598Z,95568.03
2018-12-04T10:54:38.622Z,95571.17
2018-12-04T10:57:09.828Z,95577.38
2018-12-04T10:59:39.743Z,95573.31
2018-12-04T11:02:13.406Z,95584.42
2018-12-04T11:04:41.804Z,95592.86
2018-12-04T11:07:10.193Z,95587.55
2018-12-04T11:09:40.145Z,95583.00
2018-12-04T11:12:12.221Z,95593.30
2018-12-04T11:14:39.201Z,95593.56
2018-12-04T11:17:07.720Z,95589.93
2018-12-04T11:19:36.169Z,95594.45
2018-12-04T11:22:05.131Z,95599.35
2018-12-04T11:24:33.568Z,95591.79
2018-12-04T11:27:04.642Z,95603.20
2018-12-04T11:29:33.739Z,95595.17
2018-12-04T11:32:04.649Z,95606.38
2018-12-04T11:34:33.086Z,95604.63
2018-12-04T11:37:04.406Z,95594.84
2018-12-04T11:39:32.832Z,95605.23
2018-12-04T11:42:03.629Z,95613.13
2018-12-04T11:44:32.094Z,95613.27
2018-12-04T11:47:00.585Z,95612.36
2018-12-04T11:49:29.022Z,95621.88
2018-12-04T11:51:57.419Z,95628.02
2018-12-04T11:54:25.850Z,95632.11
2018-12-04T11:56:54.488Z,95626.09
2018-12-04T11:59:23.029Z,95636.30
2018-12-04T12:01:51.425Z,95639.44
2018-12-04T12:04:19.858Z,95640.08
2018-12-04T12:06:48.366Z,95644.77
2018-12-04T12:09:16.812Z,95637.40
2018-12-04T12:11:45.224Z,95651.14
2018-12-04T12:14:13.977Z,95647.83
2018-12-04T12:16:42.395Z,95663.73
2018-12-04T12:19:10.792Z,95667.41
2018-12-04T12:21:39.235Z,95673.49
2018-12-04T12:24:07.628Z,95675.71
2018-12-04T12:26:36.017Z,95684.58
2018-12-04T12:29:06.293Z,95676.80
2018-12-04T12:31:34.697Z,95684.52
2018-12-04T12:34:05.342Z,95684.85
2018-12-04T12:36:33.782Z,95673.64
2018-12-04T12:39:04.771Z,95682.34
2018-12-04T12:41:33.278Z,95685.73
2018-12-04T12:44:03.634Z,95688.97
2018-12-04T12:46:32.045Z,95692.34
2018-12-04T12:49:00.788Z,95688.78
2018-12-04T12:51:29.169Z,95697.78
2018-12-04T12:53:57.613Z,95692.23
2018-12-04T12:56:26.032Z,95703.80
2018-12-04T12:58:54.445Z,95706.79
2018-12-04T13:01:22.885Z,95712.05
2018-12-04T13:03:51.274Z,95717.16
2018-12-04T13:06:19.720Z,95722.73
2018-12-04T13:08:48.156Z,95737.57
2018-12-04T13:11:16.669Z,95734.23
2018-12-04T13:13:45.077Z,95744.54
2018-12-04T13:16:13.476Z,95741.92
2018-12-04T13:18:42.060Z,95737.98
2018-12-04T13:21:10.490Z,95742.93
2018-12-04T13:23:39.336Z,95750.73
2018-12-04T13:26:07.750Z,95750.02
2018-12-04T13:28:36.209Z,95752.63
2018-12-04T13:31:05.088Z,95754.83
2018-12-04T13:33:33.492Z,95765.70
2018-12-04T13:36:03.589Z,95756.37
2018-12-04T13:38:32.038Z,95759.02
2018-12-04T13:41:00.445Z,95768.16
2018-12-04T13:43:28.885Z,95771.09
2018-12-04T13:45:57.513Z,95767.05
2018-12-04T13:48:25.921Z,95770.75
2018-12-04T13:50:54.327Z,95771.98
2018-12-04T13:53:22.715Z,95770.02
2018-12-04T13:55:51.132Z,95783.75
2018-12-04T13:58:19.529Z,95781.45
2018-12-04T14:00:48.046Z,95788.36
2018-12-04T14:03:16.494Z,95791.67
2018-12-04T14:05:44.921Z,95793.59
2018-12-04T14:08:13.444Z,95801.89
2018-12-04T14:10:41.950Z,95798.27
2018-12-04T14:13:10.332Z,95811.73
2018-12-04T14:15:39.396Z,95816.83
2018-12-04T14:18:08.143Z,95822.58
2018-12-04T14:20:36.538Z,95830.24
2018-12-04T14:23:06.703Z,95832.57
2018-12-04T14:25:35.088Z,95842.52
2018-12-04T14:28:06.748Z,95842.62
2018-12-04T14:30:35.132Z,95849.06
2018-12-04T14:33:06.920Z,95855.89
2018-12-04T14:35:35.680Z,95864.42
2018-12-04T14:38:06.528Z,95873.56
2018-12-04T14:40:35.007Z,95882.94
2018-12-04T14:43:06.687Z,95881.91
2018-12-04T14:45:35.114Z,95881.03
2018-12-04T14:48:05.924Z,95878.33
2018-12-04T14:50:34.675Z,95875.39
2018-12-04T14:53:08.673Z,95885.34
2018-12-04T14:55:37.149Z,95891.78
2018-12-04T14:58:07.079Z,95891.55
2018-12-04T15:00:36.120Z,95896.58
2018-12-04T15:03:07.390Z,95904.16
2018-12-04T15:05:35.935Z,95905.73
2018-12-04T15:08:06.809Z,95907.33
2018-12-04T15:10:36.501Z,95907.37
2018-12-04T15:13:06.082Z,95918.61
2018-12-04T15:15:37.078Z,95923.19
2018-12-04T15:18:07.378Z,95917.05
2018-12-04T15:20:35.920Z,95915.37
2018-12-04T15:23:06.064Z,95921.50
2018-12-04T15:25:34.625Z,95913.08
2018-12-04T15:28:05.228Z,95913.30
2018-12-04T15:30:33.792Z,95924.67
2018-12-04T15:33:07.545Z,95923.56
2018-12-04T15:35:36.554Z,95930.63
2018-12-04T15:38:06.012Z,95939.53
2018-12-04T15:40:34.549Z,95944.09
2018-12-04T15:43:05.358Z,95942.08
2018-12-04T15:45:33.953Z,95947.92
2018-12-04T15:48:04.662Z,95951.16
2018-12-04T15:50:33.162Z,95946.75
2018-12-04T15:53:03.505Z,95955.39
2018-12-04T15:55:32.332Z,95953.41
2018-12-04T15:58:00.817Z,95959.60
2018-12-04T16:00:29.278Z,95952.00
2018-12-04T16:02:58.352Z,95959.10
2018-12-04T16:05:26.946Z,95964.94
2018-12-04T16:08:07.950Z,95983.13
2018-12-04T16:10:36.456Z,95984.65
2018-12-04T16:15:52.433Z,95980.66
2018-12-04T16:18:22.252Z,95989.76
2018-12-04T16:20:50.637Z,95990.88
2018-12-04T16:23:19.105Z,95991.69
2018-12-04T16:25:47.492Z,95995.95
2018-12-04T16:28:15.877Z,96001.02
2018-12-04T16:30:44.412Z,96009.51
2018-12-04T16:33:12.800Z,96008.32
2018-12-04T16:35:41.277Z,96024.20
2018-12-04T16:38:09.656Z,96027.25
2018-12-04T16:40:41.933Z,96035.05
2018-12-04T16:43:10.344Z,96035.67
2018-12-04T16:45:38.789Z,96043.71
2018-12-04T16:48:07.200Z,96042.97
2018-12-04T16:50:35.610Z,96038.81
2018-12-04T16:53:08.209Z,96039.30
2018-12-04T16:55:36.733Z,96040.20
2018-12-04T16:58:06.141Z,96039.47
2018-12-04T17:00:34.640Z,96036.88
2018-12-04T17:03:05.261Z,96044.92
2018-12-04T17:05:33.691Z,96047.97
2018-12-04T17:08:04.664Z,96049.73
2018-12-04T17:10:33.057Z,96044.27
2018-12-04T17:13:05.838Z,96053.52
2018-12-04T17:15:34.249Z,96063.02
2018-12-04T17:18:06.389Z,96063.68
2018-12-04T17:20:34.777Z,96063.02
2018-12-04T17:23:06.800Z,96056.02
2018-12-04T17:25:35.188Z,96050.28
2018-12-04T17:28:05.825Z,96060.53
2018-12-04T17:30:34.225Z,96063.22
2018-12-04T17:33:05.372Z,96074.30
2018-12-04T17:35:36.197Z,96081.70
2018-12-04T17:38:06.464Z,96088.55
2018-12-04T17:40:34.840Z,96095.30
2018-12-04T17:43:06.117Z,96098.70
2018-12-04T17:45:34.501Z,96108.98
2018-12-04T17:48:05.216Z,96112.30
2018-12-04T17:50:33.592Z,96113.88
2018-12-04T17:53:08.897Z,96127.64
2018-12-04T17:55:37.296Z,96127.36
2018-12-04T17:58:05.830Z,96131.52
2018-12-04T18:00:34.298Z,96136.41
2018-12-04T18:03:05.273Z,96142.08
2018-12-04T18:05:33.807Z,96145.86
2018-12-04T18:08:04.558Z,96143.38
2018-12-04T18:10:32.932Z,96144.67
2018-12-04T18:13:04.292Z,96151.14
2018-12-04T18:15:33.383Z,96151.20
2018-12-04T18:18:03.715Z,96155.55
2018-12-04T18:20:32.253Z,96159.98
2018-12-04T18:23:04.363Z,96172.12
2018-12-04T18:25:32.752Z,96172.39
2018-12-04T18:28:03.584Z,96165.63
2018-12-04T18:30:31.973Z,96175.05
2018-12-04T18:33:00.456Z,96179.20
2018-12-04T18:35:28.836Z,96188.00
2018-12-04T18:37:57.279Z,96188.19
2018-12-04T18:40:25.664Z,96195.28
2018-12-04T18:42:54.093Z,96195.20
2018-12-04T18:45:22.489Z,96195.95
2018-12-04T18:47:50.950Z,96198.45
2018-12-04T18:50:19.331Z,96191.31
2018-12-04T18:52:47.802Z,96197.98
2018-12-04T18:55:22.149Z,96201.78
2018-12-04T18:57:50.852Z,96200.78
2018-12-04T19:00:19.456Z,96207.78
2018-12-04T19:02:47.912Z,96213.63
2018-12-04T19:05:16.415Z,96213.45
2018-12-04T19:07:45.206Z,96214.19
2018-12-04T19:10:14.345Z,96212.79
2018-12-04T19:12:43.427Z,96214.25
2018-12-04T19:15:11.824Z,96221.02
2018-12-04T19:17:40.284Z,96220.11
2018-12-04T19:20:09.533Z,96220.58
2018-12-04T19:22:38.606Z,96225.72
2018-12-04T19:25:09.729Z,96226.56
2018-12-04T19:27:38.261Z,96231.47
2018-12-04T19:30:11.139Z,96233.95
2018-12-04T19:32:39.620Z,96241.27
2018-12-04T19:35:09.939Z,96237.67
2018-12-04T19:37:38.656Z,96235.53
2018-12-04T19:40:11.570Z,96238.31
2018-12-04T19:42:44.121Z,96230.61
2018-12-04T19:45:13.137Z,96235.52
2018-12-04T19:47:42.355Z,96239.12
2018-12-04T19:50:11.216Z,96228.84
2018-12-04T19:52:39.901Z,96238.16
2018-12-04T19:55:08.471Z,96240.59
2018-12-04T19:57:37.232Z,96246.61
2018-12-04T20:00:07.601Z,96251.11
2018-12-04T20:02:36.277Z,96251.11
2018-12-04T20:05:10.595Z,96255.16
2018-12-04T20:07:39.165Z,96256.28
2018-12-04T20:10:11.321Z,96262.23
2018-12-04T20:12:40.833Z,96255.40
2018-12-04T20:15:09.812Z,96258.17
2018-12-04T20:17:38.608Z,96266.05
2018-12-04T20:20:08.153Z,96267.90
2018-12-04T20:22:36.575Z,96277.62
2018-12-04T20:25:08.638Z,96273.73
2018-12-04T20:27:37.645Z,96280.20
2018-12-04T20:30:08.068Z,96272.73
2018-12-04T20:32:36.500Z,96271.43
2018-12-04T20:35:05.565Z,96264.02
2018-12-04T20:37:33.983Z,96270.88
2018-12-04T20:40:04.725Z,96271.59
2018-12-04T20:42:33.155Z,96276.22
2018-12-04T20:45:03.671Z,96275.91
2018-12-04T20:47:32.047Z,96281.19
2018-12-04T20:50:00.482Z,96282.19
2018-12-04T20:52:28.869Z,96285.62
2018-12-04T20:54:57.338Z,96295.69
2018-12-04T20:57:25.750Z,96304.55
2018-12-04T20:59:54.184Z,96310.28
2018-12-04T21:02:22.653Z,96303.00
2018-12-04T21:04:51.104Z,96304.81
2018-12-04T21:07:19.733Z,96303.32
2018-12-04T21:09:48.141Z,96298.27
2018-12-04T21:12:16.604Z,96300.02
2018-12-04T21:14:45.017Z,96283.81
2018-12-04T21:17:13.424Z,96295.81
2018-12-04T21:19:42.041Z,96303.80
2018-12-04T21:22:10.470Z,96308.14
2018-12-04T21:24:38.852Z,96303.80
2018-12-04T21:27:12.070Z,96295.66
2018-12-04T21:29:45.737Z,96304.65
2018-12-04T21:33:17.099Z,96313.06
2018-12-04T21:35:50.783Z,96308.59
2018-12-04T21:38:25.556Z,96320.23
2018-12-04T21:41:05.403Z,96320.05
2018-12-04T21:43:39.793Z,96321.44
2018-12-04T21:47:16.921Z,96329.75
2018-12-04T21:49:45.435Z,96336.02
2018-12-04T21:52:13.846Z,96338.61
2018-12-04T21:54:42.277Z,96337.38
2018-12-04T21:57:10.720Z,96343.84
2018-12-04T21:59:39.278Z,96346.48
2018-12-04T22:02:07.814Z,96344.04
2018-12-04T22:04:36.230Z,96345.14
2018-12-04T22:07:05.989Z,96349.90
2018-12-04T22:09:34.898Z,96349.35
2018-12-04T22:12:06.169Z,96349.55
2018-12-04T22:14:34.653Z,96349.94
2018-12-04T22:17:05.243Z,96350.26
2018-12-04T22:19:33.813Z,96355.44
2018-12-04T22:22:04.466Z,96361.75
2018-12-04T22:24:32.916Z,96367.62
2018-12-04T22:27:03.485Z,96361.59
2018-12-04T22:29:31.866Z,96351.91
2018-12-04T22:32:00.386Z,96350.74
2018-12-04T22:34:28.780Z,96354.03
2018-12-04T22:36:57.906Z,96367.52
2018-12-04T22:39:26.551Z,96363.20
2018-12-04T22:41:55.040Z,96370.89
2018-12-04T22:44:23.440Z,96372.64
2018-12-04T22:46:52.102Z,96378.56
2018-12-04T22:49:20.492Z,96374.33
2018-12-04T22:51:48.921Z,96374.58
2018-12-04T22:54:17.312Z,96377.43
2018-12-04T22:56:45.754Z,96391.41
2018-12-04T22:59:14.146Z,96386.29
2018-12-04T23:01:42.953Z,96388.81
2018-12-04T23:04:11.465Z,96392.02
2018-12-04T23:06:39.904Z,96393.98
2018-12-04T23:09:10.433Z,96395.44
2018-12-04T23:11:39.306Z,96392.45
2018-12-04T23:14:08.069Z,96396.08
2018-12-04T23:16:36.629Z,96389.06
2018-12-04T23:19:07.305Z,96384.39
2018-12-04T23:21:35.742Z,96378.17
2018-12-04T23:24:06.174Z,96368.13
2018-12-04T23:26:34.696Z,96360.66
2018-12-04T23:29:07.680Z,96357.09
2018-12-04T23:31:36.191Z,96359.27
2018-12-04T23:34:05.425Z,96357.68
2018-12-04T23:36:33.809Z,96353.95
2018-12-04T23:39:08.448Z,96356.23
2018-12-04T23:41:36.956Z,96352.26
2018-12-04T23:44:05.527Z,96364.53
2018-12-04T23:46:33.969Z,96369.56
2018-12-04T23:49:04.796Z,96381.16
2018-12-04T23:51:33.193Z,96377.17
2018-12-04T23:54:03.717Z,96371.52
2018-12-04T23:56:32.093Z,96370.77
2018-12-04T23:59:00.525Z,96380.80
